Latest Weather Observations for South Johnstone

IDQ60801

Issued at 11:12 pm EST Monday 18 June 2018 (issued every 10 minutes, with the page automatically refreshed every 10 minutes)

About weather observations | Map of weather stations | Latest weather observations for QLD | Other Formats
Station Details ID: 032037 Name: SOUTH JOHNSTONE EXP STN Lat: -17.61 Lon: 146.00 Height: 18.3 m
Data from the previous 72 hours. | See also: Recent months at South Johnstone
Date/Time
EST
Temp
°C
App
Temp
°C
Dew
Point
°C
Rel
Hum
%
Delta-T
°C
Wind Press
QNH
hPa
Press
MSL
hPa
Rain since
9am
mm
Dir  Spd
km/h
Gust
km/h
Spd
kts
Gust
kts
18/11:00pm 13.7 14.4 12.2 91 0.8 CALM 0 4 0 2 1020.6 - 0.0
18/10:30pm 14.1 14.8 12.2 88 1.0 CALM 0 4 0 2 1021.0 - 0.0
18/10:00pm 14.4 15.1 12.2 87 1.2 CALM 0 2 0 1 1021.1 - 0.0
18/09:30pm 14.8 15.6 12.6 87 1.2 CALM 0 6 0 3 1020.9 - 0.0
18/09:00pm 15.0 15.4 12.6 85 1.3 WNW 2 7 1 4 1020.7 1020.6 0.0
18/08:30pm 15.4 15.0 12.5 83 1.6 W 6 11 3 6 1020.4 - 0.0
18/08:00pm 16.0 16.0 12.3 79 2.0 W 4 11 2 6 1020.2 - 0.0
18/07:30pm 16.7 15.6 12.1 74 2.5 WSW 9 13 5 7 1019.8 - 0.0
18/07:00pm 16.8 17.6 12.4 75 2.4 CALM 0 0 0 0 1019.5 - 0.0
18/06:30pm 17.8 18.6 12.6 71 2.9 CALM 0 0 0 0 1019.2 - 0.0
18/06:00pm 18.7 18.9 10.7 59 4.3 CALM 0 7 0 4 1018.8 1018.7 0.0
18/05:30pm 20.0 19.8 9.2 49 5.7 CALM 0 0 0 0 1018.5 - 0.0
18/05:00pm 20.8 19.1 8.3 44 6.5 SSE 7 15 4 8 1018.1 - 0.0
18/04:30pm 21.5 18.7 7.0 39 7.4 ESE 11 20 6 11 1017.7 - 0.0
18/04:00pm 21.8 18.1 6.1 36 7.9 SE 15 22 8 12 1017.7 - 0.0
18/03:30pm 22.2 18.7 7.3 38 7.7 SSE 15 24 8 13 1017.4 - 0.0
18/03:00pm 22.9 19.9 7.8 38 7.9 SSE 13 20 7 11 1017.4 1017.3 0.0
18/02:30pm 23.7 20.0 4.2 28 9.6 ESE 13 22 7 12 1017.7 - 0.0
18/02:00pm 23.3 19.9 5.9 32 8.8 SSE 13 24 7 13 1017.9 - 0.0
18/01:30pm 23.5 20.9 9.2 40 7.7 SSE 13 20 7 11 1018.3 - 0.0
18/01:00pm 23.3 20.6 8.9 40 7.7 SSE 13 24 7 13 1018.6 - 0.0
18/12:30pm 23.0 19.6 7.7 37 8.0 SSE 15 22 8 12 1019.2 - 0.0
18/12:00pm 22.8 18.5 5.4 32 8.7 S 17 24 9 13 1019.7 1019.6 0.0
18/11:30am 22.9 19.8 7.2 36 8.1 SSE 13 24 7 13 1020.1 - 0.0
18/11:00am 22.5 19.6 8.0 39 7.6 S 13 19 7 10 1020.4 - 0.0
18/10:30am 22.7 19.9 8.5 40 7.5 S 13 20 7 11 1020.8 - 0.0
18/10:00am 22.6 20.2 8.6 40 7.4 S 11 20 6 11 1020.9 - 0.0
18/09:30am 21.3 21.1 11.8 54 5.3 E 4 9 2 5 1020.8 - 0.0
18/09:00am 19.3 20.3 13.1 67 3.5 CALM 0 0 0 0 1021.0 1020.9 0.0
18/08:30am 17.6 18.5 15.2 86 1.4 WSW 4 9 2 5 1020.8 - 0.0
18/08:00am 16.7 17.4 14.6 87 1.2 W 4 9 2 5 1020.4 - 0.0
18/07:30am 16.1 17.5 14.3 89 1.0 CALM 0 0 0 0 1020.1 - 0.0
18/07:00am 16.0 17.1 14.6 91 0.8 NW 2 6 1 3 1019.8 - 0.0
18/06:30am 16.2 17.3 14.6 90 0.9 NW 2 6 1 3 1019.5 - 0.0
18/06:00am 16.3 17.7 14.5 89 1.0 CALM 0 7 0 4 1019.0 1018.9 0.0
18/05:30am 16.5 18.1 14.8 90 1.0 CALM 0 6 0 3 1019.0 - 0.0
18/05:00am 16.4 17.2 14.8 90 0.9 W 4 7 2 4 1019.0 - 0.0
18/04:00am 16.3 17.8 14.6 90 1.0 CALM 0 7 0 4 1018.7 - 0.0
18/03:30am 16.2 17.8 14.8 91 0.8 CALM 0 2 0 1 1018.6 - 0.0
18/03:00am 16.5 18.1 14.8 90 1.0 CALM 0 0 0 0 1018.7 1018.6 0.0
18/02:30am 16.7 16.6 15.0 90 1.0 WSW 9 13 5 7 1018.7 - 0.0
18/02:00am 16.8 16.9 15.4 91 0.8 WSW 9 13 5 7 1019.0 - 0.0
18/01:30am 16.9 17.7 14.8 87 1.2 W 4 11 2 6 1019.3 - 0.0
18/01:00am 17.2 18.2 15.3 88 1.1 W 4 9 2 5 1019.6 - 0.0
18/12:30am 17.3 17.1 14.7 85 1.5 WSW 9 15 5 8 1020.0 - 0.0
18/12:00am 17.3 18.6 15.1 87 1.3 W 2 7 1 4 1020.1 1020.0 0.0
 
Date/Time
EST
Temp
°C
App
Temp
°C
Dew
Point
°C
Rel
Hum
%
Delta-T
°C
Wind Press
QNH
hPa
Press
MSL
hPa
Rain since
9am
mm
Dir  Spd
km/h
Gust
km/h
Spd
kts
Gust
kts
17/11:30pm 17.3 18.6 15.1 87 1.3 WNW 2 7 1 4 1020.3 - 0.0
17/11:00pm 17.3 17.2 14.9 86 1.4 WSW 9 13 5 7 1020.4 - 0.0
17/10:30pm 17.4 17.4 15.2 87 1.3 WSW 9 15 5 8 1020.6 - 0.0
17/10:00pm 17.4 18.0 15.2 87 1.3 WSW 6 13 3 7 1020.7 - 0.0
17/09:30pm 17.6 17.9 14.6 82 1.7 WSW 6 11 3 6 1020.6 - 0.0
17/09:00pm 17.8 18.1 14.5 81 1.9 W 6 11 3 6 1020.5 1020.4 0.0
17/08:30pm 18.0 18.2 14.7 81 1.9 W 7 11 4 6 1020.4 - 0.0
17/08:00pm 18.2 18.0 14.6 79 2.1 WSW 9 13 5 7 1020.1 - 0.0
17/07:30pm 18.7 18.7 14.2 75 2.6 WSW 7 13 4 7 1019.9 - 0.0
17/07:00pm 18.8 20.4 14.8 77 2.3 CALM 0 0 0 0 1019.8 - 0.0
17/06:30pm 18.9 20.2 14.2 74 2.7 CALM 0 0 0 0 1019.6 - 0.0
17/06:00pm 19.4 20.7 14.0 71 3.1 CALM 0 0 0 0 1019.3 1019.2 0.0
17/05:30pm 21.0 22.0 13.3 61 4.4 CALM 0 4 0 2 1019.0 - 0.0
17/05:00pm 22.1 20.9 11.7 51 5.8 SE 9 15 5 8 1018.4 - 0.0
17/04:30pm 22.7 20.9 10.9 47 6.5 SE 11 17 6 9 1018.3 - 0.0
17/04:00pm 23.8 20.4 7.8 36 8.4 SE 15 24 8 13 1018.0 - 0.0
17/03:30pm 24.5 21.0 7.0 32 9.1 SSE 15 22 8 12 1017.8 - 0.0
17/03:00pm 24.6 21.1 7.2 32 9.1 SSE 15 22 8 12 1017.7 1017.6 0.0
17/02:30pm 24.9 21.3 8.5 35 8.8 SSE 17 24 9 13 1017.8 - 0.0
17/02:00pm 24.9 22.0 9.8 38 8.3 SE 15 24 8 13 1017.8 - 0.0
17/01:30pm 24.5 22.4 11.3 43 7.4 SSE 13 20 7 11 1018.0 - 0.0
17/01:00pm 24.9 22.6 11.7 43 7.5 S 15 20 8 11 1018.2 - 0.0
17/12:30pm 24.7 22.7 12.7 47 6.9 S 15 24 8 13 1018.7 - 0.0
17/12:00pm 24.6 23.3 13.7 50 6.4 SSE 13 20 7 11 1019.2 1019.1 0.0
17/11:30am 24.2 22.5 13.6 51 6.2 SSE 15 22 8 12 1019.7 - 0.0
17/11:00am 24.2 23.2 14.6 55 5.7 SSE 13 24 7 13 1019.9 - 0.0
17/10:30am 23.6 23.5 16.0 62 4.6 SSE 11 19 6 10 1020.0 - 0.0
17/10:00am 23.3 24.4 17.1 68 3.8 SSW 7 19 4 10 1020.1 - 0.0
17/09:30am 21.1 22.3 18.2 83 1.8 WSW 9 13 5 7 1020.2 - 0.0
17/09:00am 19.3 22.0 17.7 90 1.0 CALM 0 0 0 0 1020.3 1020.2 0.0
17/08:30am 18.1 19.7 16.8 92 0.8 WSW 4 9 2 5 1020.1 - 0.0
17/08:00am 17.5 18.3 16.3 93 0.7 W 7 11 4 6 1019.9 - 0.0
17/07:30am 16.8 16.7 15.9 94 0.5 WSW 11 13 6 7 1019.8 - 0.0
17/07:00am 16.7 17.4 16.0 96 0.4 W 7 11 4 6 1019.5 - 0.0
17/06:30am 16.9 18.6 16.1 95 0.5 NNW 2 9 1 5 1019.2 - 0.0
17/06:00am 17.1 19.2 16.3 95 0.5 CALM 0 7 0 4 1019.2 1019.1 0.0
17/05:30am 16.9 17.5 15.9 94 0.6 WSW 7 11 4 6 1019.1 - 0.0
17/05:00am 16.8 17.4 15.8 94 0.6 W 7 11 4 6 1018.9 - 0.0
17/04:30am 16.9 17.2 16.1 95 0.5 W 9 13 5 7 1018.9 - 0.0
17/04:00am 17.1 17.5 16.4 96 0.4 WSW 9 15 5 8 1018.7 - 0.0
17/03:30am 17.2 17.3 16.5 96 0.4 WSW 11 15 6 8 1018.7 - 0.0
17/03:00am 17.3 17.8 16.6 96 0.4 W 9 15 5 8 1018.8 1018.7 0.0
17/02:30am 17.5 17.7 16.8 96 0.4 W 11 15 6 8 1019.0 - 0.0
17/02:00am 17.6 17.9 16.9 96 0.4 WSW 11 17 6 9 1019.3 - 0.0
17/01:30am 17.9 18.6 17.1 95 0.5 W 9 13 5 7 1019.5 - 0.0
17/01:00am 18.1 18.5 17.3 95 0.5 WSW 11 13 6 7 1019.9 - 0.0
17/12:30am 18.4 19.0 17.6 95 0.5 WSW 11 15 6 8 1019.8 - 0.0
17/12:00am 18.7 21.0 17.7 94 0.6 W 2 11 1 6 1020.0 1019.9 0.0
 
Date/Time
EST
Temp
°C
App
Temp
°C
Dew
Point
°C
Rel
Hum
%
Delta-T
°C
Wind Press
QNH
hPa
Press
MSL
hPa
Rain since
9am
mm
Dir  Spd
km/h
Gust
km/h
Spd
kts
Gust
kts
16/11:30pm 19.2 22.1 18.1 93 0.7 CALM 0 2 0 1 1019.9 - 0.0
16/11:00pm 19.3 21.4 18.2 93 0.7 WSW 4 11 2 6 1020.2 - 0.0
16/10:30pm 19.6 22.2 18.5 93 0.7 W 2 7 1 4 1019.8 - 0.0
16/10:00pm 19.7 22.2 18.2 91 0.9 WNW 2 7 1 4 1020.1 - 0.0
16/09:30pm 20.0 23.1 18.6 92 0.9 CALM 0 0 0 0 1020.1 - 0.0
16/09:00pm 20.2 22.8 18.4 89 1.1 W 2 6 1 3 1020.3 1020.2 0.0
16/08:30pm 20.4 23.3 18.3 88 1.3 CALM 0 0 0 0 1020.0 - 0.0
16/08:00pm 20.8 23.6 18.9 89 1.2 W 2 6 1 3 1020.0 - 0.0
16/07:30pm 21.2 23.1 18.5 84 1.7 SSE 6 9 3 5 1019.7 - 0.0
16/07:00pm 22.0 23.1 18.0 78 2.5 S 9 17 5 9 1019.5 - 0.0
16/06:30pm 22.1 23.2 18.1 78 2.5 SSW 9 19 5 10 1019.3 - 0.0
16/06:00pm 21.9 23.6 18.5 81 2.1 SE 7 13 4 7 1019.2 1019.1 0.0
16/05:30pm 22.8 24.0 18.3 76 2.8 SSE 9 15 5 8 1018.9 - 0.0
16/05:00pm 23.7 24.6 18.3 71 3.4 SE 11 17 6 9 1018.5 - 0.0
16/04:30pm 24.2 24.8 17.6 66 4.1 SE 11 17 6 9 1018.3 - 0.0
16/04:00pm 24.8 25.4 17.8 65 4.4 SE 11 17 6 9 1018.2 - 0.0
16/03:30pm 24.8 25.3 17.4 63 4.6 SSE 11 17 6 9 1018.0 - 0.0
16/03:00pm 25.5 25.7 17.7 62 4.9 S 13 22 7 12 1018.0 1017.9 0.0
16/02:30pm 25.7 25.8 17.4 60 5.2 S 13 24 7 13 1018.2 - 0.0
16/02:00pm 25.6 26.5 17.6 61 5.0 SSE 9 19 5 10 1018.4 - 0.0
16/01:30pm 26.0 26.4 17.2 58 5.5 SE 11 20 6 11 1018.8 - 0.0
16/01:00pm 25.5 25.8 16.9 59 5.3 SE 11 20 6 11 1019.3 - 0.0
16/12:30pm 25.5 26.0 17.5 61 5.0 SSE 11 22 6 12 1019.8 - 0.0
16/12:00pm 25.3 25.8 17.4 61 4.9 SSE 11 17 6 9 1020.4 1020.3 0.0
16/11:30am 24.7 26.4 18.5 68 3.9 S 7 11 4 6 1020.7 - 0.0
16/11:00am 24.2 25.3 18.1 68 3.8 S 9 15 5 8 1020.9 - 0.0
16/10:30am 24.2 25.3 18.1 68 3.8 S 9 17 5 9 1021.0 - 0.0
16/10:00am 24.1 24.4 18.0 68 3.8 S 13 19 7 10 1021.1 - 0.0
16/09:30am 23.5 25.5 18.7 74 3.0 SW 6 13 3 7 1021.2 - 0.0
16/09:00am 21.3 23.0 18.6 84 1.7 WSW 7 13 4 7 1021.1 1021.0 0.0
16/08:30am 19.9 22.1 17.4 85 1.5 WSW 2 9 1 5 1020.9 - 0.0
16/08:00am 17.5 18.4 16.7 95 0.5 W 7 13 4 7 1020.5 - 0.0
16/07:30am 16.7 17.4 16.0 96 0.4 W 7 13 4 7 1020.2 - 0.0
16/07:00am 16.7 18.8 16.2 97 0.3 CALM 0 0 0 0 1020.0 - 0.0
16/06:30am 16.5 18.6 16.2 98 0.2 CALM 0 0 0 0 1019.6 - 0.0
16/06:00am 16.7 17.4 16.2 97 0.3 W 7 11 4 6 1019.4 1019.3 0.0
16/05:30am 16.6 16.5 16.1 97 0.3 W 11 15 6 8 1019.2 - 0.0
16/05:00am 16.9 17.7 16.4 97 0.3 W 7 11 4 6 1019.3 - 0.0
16/04:30am 17.2 19.5 16.7 97 0.3 CALM 0 4 0 2 1019.1 - 0.0
16/04:00am 17.4 18.4 16.9 97 0.3 W 7 13 4 7 1019.1 - 0.0
16/03:30am 17.5 19.5 17.0 97 0.3 NE 2 7 1 4 1019.2 - 0.0
16/03:00am 17.5 18.5 16.8 96 0.4 WSW 7 11 4 6 1019.2 1019.1 0.0
16/02:30am 17.5 17.7 16.8 96 0.4 WSW 11 13 6 7 1019.4 - 0.0
16/02:00am 17.6 18.2 16.9 96 0.4 WSW 9 13 5 7 1019.5 - 0.0
16/01:30am 17.6 18.2 16.9 96 0.4 WSW 9 13 5 7 1019.9 - 0.0
16/01:00am 17.7 18.4 17.0 96 0.4 W 9 13 5 7 1020.4 - 0.0
16/12:30am 17.7 18.3 16.9 95 0.5 WSW 9 13 5 7 1020.4 - 0.0
16/12:00am 17.9 19.0 17.1 95 0.5 WSW 7 11 4 6 1020.8 1020.7 0.0
 
Date/Time
EST
Temp
°C
App
Temp
°C
Dew
Point
°C
Rel
Hum
%
Delta-T
°C
Wind Press
QNH
hPa
Press
MSL
hPa
Rain since
9am
mm
Dir  Spd
km/h
Gust
km/h
Spd
kts
Gust
kts
15/11:30pm 18.3 20.1 17.3 94 0.6 WNW 4 7 2 4 1021.0 - 0.0

Other Formats:

Comma delimited format used in spreadsheet applications
http://www.bom.gov.au/fwo/IDQ60801/IDQ60801.95292.axf

JavaScript Object Notation format (JSON) in row-major order
http://www.bom.gov.au/fwo/IDQ60801/IDQ60801.95292.json